sensor_id;sensor_type;location;lat;lon;timestamp;pressure;altitude;pressure_sealevel;temperature;humidity
54329;BME280;40710;51.120;13.136;2023-06-26T00:01:35;99456.94;;;22.65;58.42
54329;BME280;40710;51.120;13.136;2023-06-26T00:04:00;99458.28;;;22.61;58.60
54329;BME280;40710;51.120;13.136;2023-06-26T00:06:25;99458.50;;;22.68;58.47
54329;BME280;40710;51.120;13.136;2023-06-26T00:08:50;99462.94;;;22.59;58.56
54329;BME280;40710;51.120;13.136;2023-06-26T00:11:15;99462.00;;;22.68;58.26
54329;BME280;40710;51.120;13.136;2023-06-26T00:13:39;99465.50;;;22.95;57.79
54329;BME280;40710;51.120;13.136;2023-06-26T00:16:04;99463.03;;;23.19;56.51
54329;BME280;40710;51.120;13.136;2023-06-26T00:18:29;99458.28;;;22.61;58.44
54329;BME280;40710;51.120;13.136;2023-06-26T00:20:53;99459.63;;;22.65;58.17
54329;BME280;40710;51.120;13.136;2023-06-26T00:23:18;99460.56;;;22.56;58.50
54329;BME280;40710;51.120;13.136;2023-06-26T00:25:43;99463.22;;;22.48;58.81
54329;BME280;40710;51.120;13.136;2023-06-26T00:28:08;99450.44;;;22.68;58.20
54329;BME280;40710;51.120;13.136;2023-06-26T00:30:32;99455.22;;;22.56;58.18
54329;BME280;40710;51.120;13.136;2023-06-26T00:32:57;99456.50;;;22.07;59.49
54329;BME280;40710;51.120;13.136;2023-06-26T00:35:22;99456.25;;;22.37;58.86
54329;BME280;40710;51.120;13.136;2023-06-26T00:37:46;99460.19;;;21.79;60.86
54329;BME280;40710;51.120;13.136;2023-06-26T00:40:12;99445.25;;;22.04;59.38
54329;BME280;40710;51.120;13.136;2023-06-26T00:42:37;99450.34;;;22.33;58.84
54329;BME280;40710;51.120;13.136;2023-06-26T00:45:02;99452.13;;;21.88;59.81
54329;BME280;40710;51.120;13.136;2023-06-26T00:47:27;99458.56;;;21.50;61.35
54329;BME280;40710;51.120;13.136;2023-06-26T00:49:52;99457.84;;;21.20;62.26
54329;BME280;40710;51.120;13.136;2023-06-26T00:52:17;99440.41;;;22.43;58.41
54329;BME280;40710;51.120;13.136;2023-06-26T00:54:42;99431.56;;;22.69;57.56
54329;BME280;40710;51.120;13.136;2023-06-26T00:57:07;99437.72;;;22.25;58.72
54329;BME280;40710;51.120;13.136;2023-06-26T00:59:31;99434.53;;;22.22;59.18
54329;BME280;40710;51.120;13.136;2023-06-26T01:01:56;99439.47;;;21.81;60.37
54329;BME280;40710;51.120;13.136;2023-06-26T01:04:20;99450.44;;;21.04;62.41
54329;BME280;40710;51.120;13.136;2023-06-26T01:06:46;99437.19;;;21.86;60.16
54329;BME280;40710;51.120;13.136;2023-06-26T01:09:21;99431.56;;;21.89;60.02
54329;BME280;40710;51.120;13.136;2023-06-26T01:11:46;99430.63;;;22.16;58.99
54329;BME280;40710;51.120;13.136;2023-06-26T01:14:12;99422.59;;;22.16;59.20
54329;BME280;40710;51.120;13.136;2023-06-26T01:16:38;99437.72;;;21.53;60.97
54329;BME280;40710;51.120;13.136;2023-06-26T01:19:10;99430.25;;;21.93;59.17
54329;BME280;40710;51.120;13.136;2023-06-26T01:21:42;99433.06;;;21.74;59.86
54329;BME280;40710;51.120;13.136;2023-06-26T01:26:40;99424.75;;;22.13;58.68
54329;BME280;40710;51.120;13.136;2023-06-26T01:29:07;99409.69;;;22.30;58.30
54329;BME280;40710;51.120;13.136;2023-06-26T01:31:35;99423.66;;;21.87;59.82
54329;BME280;40710;51.120;13.136;2023-06-26T01:34:01;99419.69;;;21.74;59.60
54329;BME280;40710;51.120;13.136;2023-06-26T01:36:25;99418.78;;;22.01;58.92
54329;BME280;40710;51.120;13.136;2023-06-26T01:38:50;99415.19;;;21.74;59.83
54329;BME280;40710;51.120;13.136;2023-06-26T01:41:15;99420.03;;;21.43;60.60
54329;BME280;40710;51.120;13.136;2023-06-26T01:44:03;99420.94;;;21.97;58.77
54329;BME280;40710;51.120;13.136;2023-06-26T01:46:49;99416.63;;;21.50;60.08
54329;BME280;40710;51.120;13.136;2023-06-26T01:49:26;99411.78;;;21.26;61.25
54329;BME280;40710;51.120;13.136;2023-06-26T01:52:06;99409.06;;;21.64;59.87
54329;BME280;40710;51.120;13.136;2023-06-26T01:54:39;99405.19;;;21.58;60.19
54329;BME280;40710;51.120;13.136;2023-06-26T01:57:04;99391.25;;;22.26;57.99
54329;BME280;40710;51.120;13.136;2023-06-26T01:59:31;99401.97;;;21.55;59.80
54329;BME280;40710;51.120;13.136;2023-06-26T02:01:57;99389.41;;;21.91;58.90
54329;BME280;40710;51.120;13.136;2023-06-26T02:04:21;99388.66;;;21.99;58.39
54329;BME280;40710;51.120;13.136;2023-06-26T02:06:46;99388.84;;;21.79;58.98
54329;BME280;40710;51.120;13.136;2023-06-26T02:09:10;99385.78;;;21.74;59.21
54329;BME280;40710;51.120;13.136;2023-06-26T02:11:35;99378.41;;;21.94;58.59
54329;BME280;40710;51.120;13.136;2023-06-26T02:13:59;99392.13;;;21.45;60.03
54329;BME280;40710;51.120;13.136;2023-06-26T02:16:24;99382.19;;;21.65;58.94
54329;BME280;40710;51.120;13.136;2023-06-26T02:18:48;99386.06;;;21.53;59.58
54329;BME280;40710;51.120;13.136;2023-06-26T02:21:13;99378.72;;;21.55;59.27
54329;BME280;40710;51.120;13.136;2023-06-26T02:23:37;99385.38;;;20.95;61.52
54329;BME280;40710;51.120;13.136;2023-06-26T02:26:02;99387.34;;;21.21;60.50
54329;BME280;40710;51.120;13.136;2023-06-26T02:28:26;99380.34;;;21.20;60.65
54329;BME280;40710;51.120;13.136;2023-06-26T02:30:51;99395.47;;;21.02;61.28
54329;BME280;40710;51.120;13.136;2023-06-26T02:33:15;99383.41;;;21.25;60.75
54329;BME280;40710;51.120;13.136;2023-06-26T02:35:40;99393.88;;;21.09;60.75
54329;BME280;40710;51.120;13.136;2023-06-26T02:38:04;99393.50;;;21.04;61.08
54329;BME280;40710;51.120;13.136;2023-06-26T02:40:29;99384.41;;;21.42;60.21
54329;BME280;40710;51.120;13.136;2023-06-26T02:42:54;99376.84;;;21.65;59.24
54329;BME280;40710;51.120;13.136;2023-06-26T02:45:18;99370.31;;;21.68;59.37
54329;BME280;40710;51.120;13.136;2023-06-26T02:47:43;99385.09;;;20.99;60.99
54329;BME280;40710;51.120;13.136;2023-06-26T02:50:08;99379.66;;;21.46;59.80
54329;BME280;40710;51.120;13.136;2023-06-26T02:52:32;99374.59;;;21.15;60.24
54329;BME280;40710;51.120;13.136;2023-06-26T02:54:57;99385.44;;;21.13;60.60
54329;BME280;40710;51.120;13.136;2023-06-26T02:57:21;99373.16;;;21.66;58.85
54329;BME280;40710;51.120;13.136;2023-06-26T02:59:46;99372.63;;;21.63;58.99
54329;BME280;40710;51.120;13.136;2023-06-26T03:02:10;99376.38;;;21.42;59.76
54329;BME280;40710;51.120;13.136;2023-06-26T03:04:35;99376.09;;;21.45;59.44
54329;BME280;40710;51.120;13.136;2023-06-26T03:07:00;99371.03;;;21.88;58.13
54329;BME280;40710;51.120;13.136;2023-06-26T03:09:25;99373.28;;;21.19;60.11
54329;BME280;40710;51.120;13.136;2023-06-26T03:11:50;99367.03;;;21.56;59.49
54329;BME280;40710;51.120;13.136;2023-06-26T03:14:15;99374.34;;;21.08;60.48
54329;BME280;40710;51.120;13.136;2023-06-26T03:16:40;99358.44;;;21.34;59.35
54329;BME280;40710;51.120;13.136;2023-06-26T03:19:04;99364.44;;;21.64;58.75
54329;BME280;40710;51.120;13.136;2023-06-26T03:21:29;99356.19;;;21.30;60.09
54329;BME280;40710;51.120;13.136;2023-06-26T03:23:54;99355.84;;;21.43;59.41
54329;BME280;40710;51.120;13.136;2023-06-26T03:26:19;99351.59;;;21.50;59.29
54329;BME280;40710;51.120;13.136;2023-06-26T03:28:43;99354.97;;;21.88;58.41
54329;BME280;40710;51.120;13.136;2023-06-26T03:31:08;99348.78;;;21.51;59.03
54329;BME280;40710;51.120;13.136;2023-06-26T03:33:32;99348.72;;;21.79;57.86
54329;BME280;40710;51.120;13.136;2023-06-26T03:35:57;99343.00;;;21.28;59.54
54329;BME280;40710;51.120;13.136;2023-06-26T03:38:22;99345.44;;;21.40;59.27
54329;BME280;40710;51.120;13.136;2023-06-26T03:40:46;99352.44;;;21.23;59.31
54329;BME280;40710;51.120;13.136;2023-06-26T03:43:11;99342.44;;;21.52;58.74
54329;BME280;40710;51.120;13.136;2023-06-26T03:45:35;99343.34;;;21.61;58.61
54329;BME280;40710;51.120;13.136;2023-06-26T03:48:00;99340.69;;;21.33;59.73
54329;BME280;40710;51.120;13.136;2023-06-26T03:50:24;99352.69;;;21.57;58.85
54329;BME280;40710;51.120;13.136;2023-06-26T03:52:49;99354.44;;;21.66;58.73
54329;BME280;40710;51.120;13.136;2023-06-26T03:55:14;99348.50;;;22.17;57.52
54329;BME280;40710;51.120;13.136;2023-06-26T03:57:39;99358.13;;;21.20;59.82
54329;BME280;40710;51.120;13.136;2023-06-26T04:00:04;99351.72;;;21.30;59.58
54329;BME280;40710;51.120;13.136;2023-06-26T04:02:38;99341.59;;;21.52;59.22
54329;BME280;40710;51.120;13.136;2023-06-26T04:05:03;99340.28;;;21.92;57.87
54329;BME280;40710;51.120;13.136;2023-06-26T04:07:29;99339.50;;;22.00;57.87
54329;BME280;40710;51.120;13.136;2023-06-26T04:09:53;99338.97;;;21.96;57.89
54329;BME280;40710;51.120;13.136;2023-06-26T04:12:18;99336.09;;;22.16;57.84
54329;BME280;40710;51.120;13.136;2023-06-26T04:14:42;99339.59;;;21.72;58.52
54329;BME280;40710;51.120;13.136;2023-06-26T04:17:07;99339.47;;;22.18;57.79
54329;BME280;40710;51.120;13.136;2023-06-26T04:19:31;99338.06;;;21.87;58.35
54329;BME280;40710;51.120;13.136;2023-06-26T04:21:56;99341.41;;;22.07;58.35
54329;BME280;40710;51.120;13.136;2023-06-26T04:24:21;99342.22;;;21.46;59.43
54329;BME280;40710;51.120;13.136;2023-06-26T04:26:46;99341.00;;;21.76;59.12
54329;BME280;40710;51.120;13.136;2023-06-26T04:29:10;99343.06;;;22.26;57.62
54329;BME280;40710;51.120;13.136;2023-06-26T04:31:35;99345.25;;;21.87;58.40
54329;BME280;40710;51.120;13.136;2023-06-26T04:33:59;99336.28;;;21.96;58.36
54329;BME280;40710;51.120;13.136;2023-06-26T04:36:24;99324.66;;;22.58;56.54
54329;BME280;40710;51.120;13.136;2023-06-26T04:38:52;99325.53;;;22.58;56.62
54329;BME280;40710;51.120;13.136;2023-06-26T04:41:17;99334.25;;;22.34;56.64
54329;BME280;40710;51.120;13.136;2023-06-26T04:43:41;99330.94;;;22.40;57.64
54329;BME280;40710;51.120;13.136;2023-06-26T04:46:06;99332.56;;;22.33;57.87
54329;BME280;40710;51.120;13.136;2023-06-26T04:48:31;99326.63;;;22.48;57.87
54329;BME280;40710;51.120;13.136;2023-06-26T04:50:55;99323.78;;;22.83;56.76
54329;BME280;40710;51.120;13.136;2023-06-26T04:53:21;99317.22;;;22.78;56.91
54329;BME280;40710;51.120;13.136;2023-06-26T04:55:46;99315.31;;;22.62;57.41
54329;BME280;40710;51.120;13.136;2023-06-26T04:58:11;99317.84;;;22.63;57.22
54329;BME280;40710;51.120;13.136;2023-06-26T05:00:35;99310.84;;;23.13;55.54
54329;BME280;40710;51.120;13.136;2023-06-26T05:03:00;99314.75;;;22.84;56.70
54329;BME280;40710;51.120;13.136;2023-06-26T05:05:25;99319.66;;;22.63;57.67
54329;BME280;40710;51.120;13.136;2023-06-26T05:07:49;99306.84;;;23.42;56.16
54329;BME280;40710;51.120;13.136;2023-06-26T05:10:14;99296.81;;;23.52;55.28
54329;BME280;40710;51.120;13.136;2023-06-26T05:12:38;99286.28;;;23.84;54.38
54329;BME280;40710;51.120;13.136;2023-06-26T05:15:03;99291.13;;;24.05;53.62
54329;BME280;40710;51.120;13.136;2023-06-26T05:17:28;99294.50;;;23.74;55.00
54329;BME280;40710;51.120;13.136;2023-06-26T05:19:53;99283.06;;;23.72;54.84
54329;BME280;40710;51.120;13.136;2023-06-26T05:22:17;99286.63;;;23.72;55.16
54329;BME280;40710;51.120;13.136;2023-06-26T05:24:46;99279.41;;;23.97;54.60
54329;BME280;40710;51.120;13.136;2023-06-26T05:27:11;99279.69;;;24.19;54.35
54329;BME280;40710;51.120;13.136;2023-06-26T05:29:43;99276.97;;;24.35;54.09
54329;BME280;40710;51.120;13.136;2023-06-26T05:32:09;99270.97;;;24.25;54.09
54329;BME280;40710;51.120;13.136;2023-06-26T05:34:34;99280.72;;;23.19;57.33
54329;BME280;40710;51.120;13.136;2023-06-26T05:36:59;99276.22;;;23.45;56.66
54329;BME280;40710;51.120;13.136;2023-06-26T05:39:24;99271.69;;;23.53;56.65
54329;BME280;40710;51.120;13.136;2023-06-26T05:41:49;99264.50;;;23.87;55.27
54329;BME280;40710;51.120;13.136;2023-06-26T05:44:13;99258.75;;;24.06;54.32
54329;BME280;40710;51.120;13.136;2023-06-26T05:46:38;99251.44;;;24.31;54.64
54329;BME280;40710;51.120;13.136;2023-06-26T05:49:02;99252.66;;;24.29;54.92
54329;BME280;40710;51.120;13.136;2023-06-26T05:51:27;99264.28;;;23.72;56.53
54329;BME280;40710;51.120;13.136;2023-06-26T05:53:52;99260.94;;;23.94;55.47
54329;BME280;40710;51.120;13.136;2023-06-26T05:56:17;99254.59;;;24.51;54.47
54329;BME280;40710;51.120;13.136;2023-06-26T05:58:43;99264.13;;;23.98;55.70
54329;BME280;40710;51.120;13.136;2023-06-26T06:01:08;99254.59;;;24.51;54.59
54329;BME280;40710;51.120;13.136;2023-06-26T06:03:32;99250.78;;;24.29;54.78
54329;BME280;40710;51.120;13.136;2023-06-26T06:05:57;99248.66;;;24.64;54.65
54329;BME280;40710;51.120;13.136;2023-06-26T06:08:22;99241.47;;;25.19;53.50
54329;BME280;40710;51.120;13.136;2023-06-26T06:10:46;99252.66;;;24.77;54.65
54329;BME280;40710;51.120;13.136;2023-06-26T06:13:11;99245.28;;;25.02;53.78
54329;BME280;40710;51.120;13.136;2023-06-26T06:15:35;99235.59;;;25.16;53.29
54329;BME280;40710;51.120;13.136;2023-06-26T06:18:00;99245.94;;;25.35;52.95
54329;BME280;40710;51.120;13.136;2023-06-26T06:20:24;99237.31;;;25.40;52.55
54329;BME280;40710;51.120;13.136;2023-06-26T06:22:49;99240.84;;;25.78;51.86
54329;BME280;40710;51.120;13.136;2023-06-26T06:25:14;99227.28;;;26.25;51.33
54329;BME280;40710;51.120;13.136;2023-06-26T06:27:39;99228.25;;;26.53;50.36
54329;BME280;40710;51.120;13.136;2023-06-26T06:30:03;99240.94;;;25.70;52.34
54329;BME280;40710;51.120;13.136;2023-06-26T06:32:28;99234.97;;;26.28;51.00
54329;BME280;40710;51.120;13.136;2023-06-26T06:34:53;99229.84;;;26.33;50.68
54329;BME280;40710;51.120;13.136;2023-06-26T06:37:17;99233.28;;;26.12;51.25
54329;BME280;40710;51.120;13.136;2023-06-26T06:39:42;99235.50;;;26.38;50.36
54329;BME280;40710;51.120;13.136;2023-06-26T06:42:06;99232.06;;;26.74;49.79
54329;BME280;40710;51.120;13.136;2023-06-26T06:44:31;99236.16;;;26.40;51.42
54329;BME280;40710;51.120;13.136;2023-06-26T06:46:56;99237.09;;;26.32;52.17
54329;BME280;40710;51.120;13.136;2023-06-26T06:49:20;99234.00;;;26.50;51.83
54329;BME280;40710;51.120;13.136;2023-06-26T06:51:45;99222.53;;;26.93;49.79
54329;BME280;40710;51.120;13.136;2023-06-26T06:54:10;99217.28;;;26.70;49.05
54329;BME280;40710;51.120;13.136;2023-06-26T06:56:34;99228.47;;;26.37;49.92
54329;BME280;40710;51.120;13.136;2023-06-26T06:58:59;99211.75;;;26.93;48.62
54329;BME280;40710;51.120;13.136;2023-06-26T07:01:23;99225.38;;;26.55;49.53
54329;BME280;40710;51.120;13.136;2023-06-26T07:03:48;99214.22;;;27.52;47.23
54329;BME280;40710;51.120;13.136;2023-06-26T07:06:12;99206.34;;;27.58;46.02
54329;BME280;40710;51.120;13.136;2023-06-26T07:08:37;99216.53;;;26.76;48.01
54329;BME280;40710;51.120;13.136;2023-06-26T07:11:01;99205.44;;;27.50;43.31
54329;BME280;40710;51.120;13.136;2023-06-26T07:13:26;99207.81;;;27.17;45.39
54329;BME280;40710;51.120;13.136;2023-06-26T07:15:50;99213.88;;;26.31;46.23
54329;BME280;40710;51.120;13.136;2023-06-26T07:18:15;99204.38;;;27.45;45.43
54329;BME280;40710;51.120;13.136;2023-06-26T07:20:40;99195.25;;;26.66;45.69
54329;BME280;40710;51.120;13.136;2023-06-26T07:23:04;99188.91;;;27.88;43.11
54329;BME280;40710;51.120;13.136;2023-06-26T07:25:29;99196.22;;;27.66;43.94
54329;BME280;40710;51.120;13.136;2023-06-26T07:27:53;99199.16;;;27.65;44.25
54329;BME280;40710;51.120;13.136;2023-06-26T07:30:18;99182.97;;;28.00;43.47
54329;BME280;40710;51.120;13.136;2023-06-26T07:32:44;99187.22;;;27.81;42.62
54329;BME280;40710;51.120;13.136;2023-06-26T07:35:09;99181.94;;;28.01;42.69
54329;BME280;40710;51.120;13.136;2023-06-26T07:37:34;99191.88;;;27.94;43.40
54329;BME280;40710;51.120;13.136;2023-06-26T07:39:58;99196.63;;;28.26;42.65
54329;BME280;40710;51.120;13.136;2023-06-26T07:42:23;99191.03;;;28.28;43.24
54329;BME280;40710;51.120;13.136;2023-06-26T07:44:47;99189.22;;;28.48;41.97
54329;BME280;40710;51.120;13.136;2023-06-26T07:47:12;99183.38;;;28.38;42.22
54329;BME280;40710;51.120;13.136;2023-06-26T07:49:37;99183.56;;;28.30;42.97
54329;BME280;40710;51.120;13.136;2023-06-26T07:52:03;99185.72;;;28.06;42.76
54329;BME280;40710;51.120;13.136;2023-06-26T07:54:28;99185.47;;;28.43;42.71
54329;BME280;40710;51.120;13.136;2023-06-26T07:57:01;99182.88;;;28.56;42.10
54329;BME280;40710;51.120;13.136;2023-06-26T07:59:28;99180.72;;;29.67;42.08
54329;BME280;40710;51.120;13.136;2023-06-26T08:01:54;99175.66;;;28.83;42.02
54329;BME280;40710;51.120;13.136;2023-06-26T08:04:21;99170.53;;;29.42;41.65
54329;BME280;40710;51.120;13.136;2023-06-26T08:06:48;99170.34;;;29.44;42.17
54329;BME280;40710;51.120;13.136;2023-06-26T08:09:13;99162.41;;;29.35;40.48
54329;BME280;40710;51.120;13.136;2023-06-26T08:11:37;99161.59;;;29.35;40.79
54329;BME280;40710;51.120;13.136;2023-06-26T08:14:02;99164.06;;;29.56;40.79
54329;BME280;40710;51.120;13.136;2023-06-26T08:16:26;99164.28;;;29.28;40.76
54329;BME280;40710;51.120;13.136;2023-06-26T08:18:51;99160.53;;;29.36;41.28
54329;BME280;40710;51.120;13.136;2023-06-26T08:21:15;99160.75;;;29.54;40.92
54329;BME280;40710;51.120;13.136;2023-06-26T08:23:40;99159.41;;;30.04;40.50
54329;BME280;40710;51.120;13.136;2023-06-26T08:26:04;99155.66;;;30.05;39.90
54329;BME280;40710;51.120;13.136;2023-06-26T08:28:29;99164.84;;;28.97;40.92
54329;BME280;40710;51.120;13.136;2023-06-26T08:30:53;99163.66;;;29.19;39.87
54329;BME280;40710;51.120;13.136;2023-06-26T08:33:19;99164.69;;;29.18;40.86
54329;BME280;40710;51.120;13.136;2023-06-26T08:35:43;99162.59;;;29.67;41.01
54329;BME280;40710;51.120;13.136;2023-06-26T08:38:08;99157.75;;;30.03;39.59
54329;BME280;40710;51.120;13.136;2023-06-26T08:40:33;99153.59;;;30.00;39.37
54329;BME280;40710;51.120;13.136;2023-06-26T08:42:58;99146.31;;;30.91;37.33
54329;BME280;40710;51.120;13.136;2023-06-26T08:45:22;99148.78;;;31.24;37.68
54329;BME280;40710;51.120;13.136;2023-06-26T08:47:51;99154.41;;;30.01;38.74
54329;BME280;40710;51.120;13.136;2023-06-26T08:50:20;99157.09;;;30.66;40.36
54329;BME280;40710;51.120;13.136;2023-06-26T08:52:55;99151.28;;;30.56;38.19
54329;BME280;40710;51.120;13.136;2023-06-26T08:55:23;99148.88;;;30.79;37.29
54329;BME280;40710;51.120;13.136;2023-06-26T08:57:51;99155.69;;;29.98;38.38
54329;BME280;40710;51.120;13.136;2023-06-26T09:00:17;99139.56;;;31.00;35.67
54329;BME280;40710;51.120;13.136;2023-06-26T09:02:41;99148.63;;;30.87;36.71
54329;BME280;40710;51.120;13.136;2023-06-26T09:05:06;99142.13;;;31.20;35.76
54329;BME280;40710;51.120;13.136;2023-06-26T09:07:31;99146.50;;;30.96;35.75
54329;BME280;40710;51.120;13.136;2023-06-26T09:09:55;99138.84;;;30.80;36.11
54329;BME280;40710;51.120;13.136;2023-06-26T09:12:21;99129.03;;;31.36;35.05
54329;BME280;40710;51.120;13.136;2023-06-26T09:14:46;99134.19;;;31.19;35.92
54329;BME280;40710;51.120;13.136;2023-06-26T09:17:13;99139.84;;;31.49;35.18
54329;BME280;40710;51.120;13.136;2023-06-26T09:19:37;99138.69;;;31.57;36.09
54329;BME280;40710;51.120;13.136;2023-06-26T09:22:03;99117.22;;;31.92;34.06
54329;BME280;40710;51.120;13.136;2023-06-26T09:24:27;99127.97;;;32.06;34.33
54329;BME280;40710;51.120;13.136;2023-06-26T09:26:52;99130.53;;;31.06;34.88
54329;BME280;40710;51.120;13.136;2023-06-26T09:29:17;99125.13;;;31.94;34.07
54329;BME280;40710;51.120;13.136;2023-06-26T09:31:42;99127.72;;;31.89;33.93
54329;BME280;40710;51.120;13.136;2023-06-26T09:34:07;99147.41;;;31.40;35.79
54329;BME280;40710;51.120;13.136;2023-06-26T09:36:33;99126.38;;;31.98;34.47
54329;BME280;40710;51.120;13.136;2023-06-26T09:38:58;99125.97;;;32.31;33.88
54329;BME280;40710;51.120;13.136;2023-06-26T09:41:22;99125.75;;;31.77;34.75
54329;BME280;40710;51.120;13.136;2023-06-26T09:43:48;99126.19;;;31.74;34.51
54329;BME280;40710;51.120;13.136;2023-06-26T09:46:26;99125.63;;;31.47;34.08
54329;BME280;40710;51.120;13.136;2023-06-26T09:49:18;99125.00;;;31.70;34.21
54329;BME280;40710;51.120;13.136;2023-06-26T09:51:42;99116.53;;;31.97;33.98
54329;BME280;40710;51.120;13.136;2023-06-26T09:54:08;99117.91;;;32.06;33.71
54329;BME280;40710;51.120;13.136;2023-06-26T09:56:33;99113.16;;;32.01;33.56
54329;BME280;40710;51.120;13.136;2023-06-26T09:59:00;99121.75;;;31.80;34.35
54329;BME280;40710;51.120;13.136;2023-06-26T10:01:26;99116.69;;;32.02;35.85
54329;BME280;40710;51.120;13.136;2023-06-26T10:03:51;99124.41;;;31.18;35.28
54329;BME280;40710;51.120;13.136;2023-06-26T10:06:20;99111.19;;;32.57;35.28
54329;BME280;40710;51.120;13.136;2023-06-26T10:08:48;99099.06;;;32.72;33.85
54329;BME280;40710;51.120;13.136;2023-06-26T10:11:16;99088.53;;;32.45;33.72
54329;BME280;40710;51.120;13.136;2023-06-26T10:13:45;99095.09;;;32.56;35.18
54329;BME280;40710;51.120;13.136;2023-06-26T10:16:13;99097.75;;;32.44;34.56
54329;BME280;40710;51.120;13.136;2023-06-26T10:18:40;99093.97;;;31.96;32.75
54329;BME280;40710;51.120;13.136;2023-06-26T10:21:06;99095.38;;;31.99;33.16
54329;BME280;40710;51.120;13.136;2023-06-26T10:23:31;99095.16;;;32.00;34.05
54329;BME280;40710;51.120;13.136;2023-06-26T10:25:59;99086.03;;;32.62;34.56
54329;BME280;40710;51.120;13.136;2023-06-26T10:28:28;99081.91;;;32.11;33.53
54329;BME280;40710;51.120;13.136;2023-06-26T10:30:54;99074.59;;;32.53;33.06
54329;BME280;40710;51.120;13.136;2023-06-26T10:33:19;99073.72;;;32.59;32.89
54329;BME280;40710;51.120;13.136;2023-06-26T10:35:44;99073.56;;;32.54;32.97
54329;BME280;40710;51.120;13.136;2023-06-26T10:38:09;99068.38;;;33.30;31.77
54329;BME280;40710;51.120;13.136;2023-06-26T10:40:43;99073.00;;;33.42;31.52
54329;BME280;40710;51.120;13.136;2023-06-26T10:43:09;99067.19;;;33.74;30.58
54329;BME280;40710;51.120;13.136;2023-06-26T10:45:34;99068.00;;;32.91;31.38
54329;BME280;40710;51.120;13.136;2023-06-26T10:48:03;99073.56;;;32.96;31.22
54329;BME280;40710;51.120;13.136;2023-06-26T10:50:32;99068.13;;;32.96;31.95
54329;BME280;40710;51.120;13.136;2023-06-26T10:56:01;99068.13;;;33.67;31.37
54329;BME280;40710;51.120;13.136;2023-06-26T10:58:44;99067.06;;;34.21;31.40
54329;BME280;40710;51.120;13.136;2023-06-26T11:03:40;99057.22;;;33.67;30.35
54329;BME280;40710;51.120;13.136;2023-06-26T11:06:20;99056.03;;;33.63;29.82
54329;BME280;40710;51.120;13.136;2023-06-26T11:08:46;99076.63;;;33.00;34.46
54329;BME280;40710;51.120;13.136;2023-06-26T11:11:13;99060.44;;;33.05;31.96
54329;BME280;40710;51.120;13.136;2023-06-26T11:13:39;99059.84;;;33.74;31.01
54329;BME280;40710;51.120;13.136;2023-06-26T11:16:05;99060.38;;;34.00;30.59
54329;BME280;40710;51.120;13.136;2023-06-26T11:18:31;99071.31;;;33.64;31.51
54329;BME280;40710;51.120;13.136;2023-06-26T11:21:12;99043.34;;;33.57;30.61
54329;BME280;40710;51.120;13.136;2023-06-26T11:23:40;99041.53;;;34.27;30.79
54329;BME280;40710;51.120;13.136;2023-06-26T11:26:19;99053.31;;;34.16;31.07
54329;BME280;40710;51.120;13.136;2023-06-26T11:28:53;99045.03;;;34.39;29.67
54329;BME280;40710;51.120;13.136;2023-06-26T11:31:35;99039.50;;;34.51;29.25
54329;BME280;40710;51.120;13.136;2023-06-26T11:34:09;99049.16;;;33.84;29.57
54329;BME280;40710;51.120;13.136;2023-06-26T11:36:41;99045.53;;;33.96;30.35
54329;BME280;40710;51.120;13.136;2023-06-26T11:39:06;99044.31;;;33.63;30.33
54329;BME280;40710;51.120;13.136;2023-06-26T11:41:33;99031.75;;;33.74;29.48
54329;BME280;40710;51.120;13.136;2023-06-26T11:44:07;99029.50;;;34.57;29.38
54329;BME280;40710;51.120;13.136;2023-06-26T11:46:34;99017.97;;;34.21;29.67
54329;BME280;40710;51.120;13.136;2023-06-26T11:48:59;99038.19;;;33.32;29.49
54329;BME280;40710;51.120;13.136;2023-06-26T11:51:26;99028.75;;;33.87;29.36
54329;BME280;40710;51.120;13.136;2023-06-26T11:53:51;99024.53;;;34.54;28.94
54329;BME280;40710;51.120;13.136;2023-06-26T11:56:17;99034.75;;;33.37;29.67
54329;BME280;40710;51.120;13.136;2023-06-26T11:59:01;99037.09;;;33.45;29.88
54329;BME280;40710;51.120;13.136;2023-06-26T12:04:01;99013.81;;;33.89;28.88
54329;BME280;40710;51.120;13.136;2023-06-26T12:06:29;99000.91;;;34.42;29.02
54329;BME280;40710;51.120;13.136;2023-06-26T12:08:56;99022.44;;;34.27;31.02
54329;BME280;40710;51.120;13.136;2023-06-26T12:11:23;99021.50;;;33.93;30.52
54329;BME280;40710;51.120;13.136;2023-06-26T12:13:49;99010.66;;;34.38;28.53
54329;BME280;40710;51.120;13.136;2023-06-26T12:16:14;99006.47;;;34.81;27.13
54329;BME280;40710;51.120;13.136;2023-06-26T12:18:39;99006.25;;;34.37;28.16
54329;BME280;40710;51.120;13.136;2023-06-26T12:21:04;99010.72;;;34.15;28.40
54329;BME280;40710;51.120;13.136;2023-06-26T12:23:33;99016.31;;;33.91;28.46
54329;BME280;40710;51.120;13.136;2023-06-26T12:25:58;99013.91;;;33.95;29.08
54329;BME280;40710;51.120;13.136;2023-06-26T12:28:23;99009.56;;;33.82;29.13
54329;BME280;40710;51.120;13.136;2023-06-26T12:31:11;99009.06;;;33.85;29.17
54329;BME280;40710;51.120;13.136;2023-06-26T12:33:36;99001.28;;;33.77;29.37
54329;BME280;40710;51.120;13.136;2023-06-26T12:36:01;98994.69;;;34.01;29.14
54329;BME280;40710;51.120;13.136;2023-06-26T12:38:33;99004.13;;;34.10;28.91
54329;BME280;40710;51.120;13.136;2023-06-26T12:40:57;98993.25;;;34.73;27.92
54329;BME280;40710;51.120;13.136;2023-06-26T12:43:23;98981.97;;;35.03;27.27
54329;BME280;40710;51.120;13.136;2023-06-26T12:45:48;98977.97;;;35.11;26.51
54329;BME280;40710;51.120;13.136;2023-06-26T12:48:12;98977.34;;;34.07;27.16
54329;BME280;40710;51.120;13.136;2023-06-26T12:50:43;98979.97;;;34.02;27.56
54329;BME280;40710;51.120;13.136;2023-06-26T12:53:08;98974.59;;;34.53;26.89
54329;BME280;40710;51.120;13.136;2023-06-26T12:55:32;98969.06;;;34.65;26.82